createdAt,value
2022-12-25T00:01:26.825Z,100135.09
2022-12-25T00:03:54.582Z,100136.69
2022-12-25T00:06:22.215Z,100134.03
2022-12-25T00:08:51.080Z,100128.13
2022-12-25T00:11:20.589Z,100127.38
2022-12-25T00:13:48.596Z,100129.00
2022-12-25T00:16:18.185Z,100122.13
2022-12-25T00:18:46.276Z,100122.22
2022-12-25T00:21:14.547Z,100131.72
2022-12-25T00:23:42.927Z,100130.09
2022-12-25T00:26:13.817Z,100124.09
2022-12-25T00:28:41.906Z,100118.97
2022-12-25T00:31:11.342Z,100119.84
2022-12-25T00:33:40.827Z,100120.56
2022-12-25T00:36:10.019Z,100111.88
2022-12-25T00:38:39.558Z,100110.25
2022-12-25T00:41:08.097Z,100111.97
2022-12-25T00:43:37.118Z,100108.47
2022-12-25T00:46:07.020Z,100115.25
2022-12-25T00:48:35.646Z,100110.91
2022-12-25T00:51:06.815Z,100117.69
2022-12-25T00:53:34.543Z,100118.31
2022-12-25T00:56:04.618Z,100121.84
2022-12-25T00:58:34.726Z,100127.72
2022-12-25T01:01:05.035Z,100128.59
2022-12-25T01:03:32.618Z,100114.94
2022-12-25T01:06:02.344Z,100114.06
2022-12-25T01:08:32.963Z,100112.16
2022-12-25T01:11:02.158Z,100109.59
2022-12-25T01:13:30.365Z,100120.72
2022-12-25T01:15:58.189Z,100124.25
2022-12-25T01:18:27.163Z,100130.44
2022-12-25T01:20:54.696Z,100126.31
2022-12-25T01:23:22.284Z,100129.94
2022-12-25T01:25:49.866Z,100123.16
2022-12-25T01:28:17.501Z,100131.66
2022-12-25T01:30:49.075Z,100130.66
2022-12-25T01:33:16.601Z,100131.44
2022-12-25T01:35:45.542Z,100132.31
2022-12-25T01:38:13.069Z,100128.91
2022-12-25T01:40:40.835Z,100126.31
2022-12-25T01:43:22.905Z,100116.91
2022-12-25T01:45:52.590Z,100126.41
2022-12-25T01:48:23.105Z,100134.13
2022-12-25T01:50:56.108Z,100132.50
2022-12-25T01:53:25.458Z,100142.06
2022-12-25T01:55:59.671Z,100140.41
2022-12-25T01:58:28.343Z,100141.34
2022-12-25T02:00:56.110Z,100126.00
2022-12-25T02:03:23.834Z,100126.06
2022-12-25T02:05:53.343Z,100122.66
2022-12-25T02:08:22.847Z,100117.44
2022-12-25T02:10:50.406Z,100119.19
2022-12-25T02:13:20.219Z,100122.44
2022-12-25T02:15:57.868Z,100119.13
2022-12-25T02:18:34.629Z,100117.53
2022-12-25T02:21:32.015Z,100110.66
2022-12-25T02:24:19.920Z,100097.69
2022-12-25T02:27:05.719Z,100104.53
2022-12-25T02:29:43.130Z,100094.25
2022-12-25T02:36:22.871Z,100101.25
2022-12-25T02:39:09.814Z,100096.13
2022-12-25T02:41:41.604Z,100107.25
2022-12-25T02:44:33.097Z,100107.25
2022-12-25T02:47:23.882Z,100104.81
2022-12-25T02:50:07.569Z,100094.53
2022-12-25T02:52:53.603Z,100100.50
2022-12-25T02:55:43.016Z,100087.50
2022-12-25T02:58:31.117Z,100080.50
2022-12-25T03:01:21.597Z,100080.47
2022-12-25T03:04:13.166Z,100069.19
2022-12-25T03:06:44.337Z,100056.94
2022-12-25T03:09:38.284Z,100047.41
2022-12-25T03:12:12.127Z,100045.44
2022-12-25T03:14:57.184Z,100048.69
2022-12-25T03:17:25.537Z,100041.91
2022-12-25T03:20:17.507Z,100035.88
2022-12-25T03:23:05.024Z,100031.72
2022-12-25T03:25:50.360Z,100037.53
2022-12-25T03:28:18.000Z,100051.19
2022-12-25T03:31:11.934Z,100053.16
2022-12-25T03:34:10.244Z,100043.91
2022-12-25T03:36:51.960Z,100045.59
2022-12-25T03:39:54.550Z,100050.69
2022-12-25T03:42:44.037Z,100059.06
2022-12-25T03:45:35.882Z,100058.22
2022-12-25T03:48:23.099Z,100046.38
2022-12-25T03:51:15.454Z,100046.38
2022-12-25T03:54:06.738Z,100054.78
2022-12-25T03:56:54.935Z,100045.41
2022-12-25T03:59:41.224Z,100037.00
2022-12-25T04:02:26.817Z,100033.59
2022-12-25T04:05:12.333Z,100036.84
2022-12-25T04:07:57.651Z,100028.56
2022-12-25T04:10:44.350Z,100033.00
2022-12-25T04:13:29.651Z,100028.00
2022-12-25T04:16:20.413Z,100034.78
2022-12-25T04:19:05.846Z,100031.28
2022-12-25T04:21:51.110Z,100032.09
2022-12-25T04:24:36.603Z,100033.84
2022-12-25T04:27:23.340Z,100042.53
2022-12-25T04:30:08.715Z,100034.88
2022-12-25T04:32:59.462Z,100034.03
2022-12-25T04:35:44.973Z,100020.41
2022-12-25T04:38:12.564Z,100010.03
2022-12-25T04:40:40.095Z,100010.84
2022-12-25T04:43:09.024Z,100014.34
2022-12-25T04:45:36.549Z,100002.22
2022-12-25T04:48:04.149Z,99998.66
2022-12-25T04:50:31.730Z,99999.47
2022-12-25T04:52:59.275Z,99991.75
2022-12-25T04:55:26.832Z,99999.47
2022-12-25T04:57:54.404Z,99999.22
2022-12-25T05:00:23.470Z,99992.13
2022-12-25T05:02:51.091Z,99998.81
2022-12-25T05:05:18.881Z,100000.28
2022-12-25T05:07:46.578Z,99988.97
2022-12-25T05:10:14.106Z,99988.88
2022-12-25T05:12:41.656Z,99989.59
2022-12-25T05:15:10.044Z,99985.13
2022-12-25T05:17:39.064Z,99989.09
2022-12-25T05:20:08.103Z,99990.75
2022-12-25T05:22:35.660Z,99998.47
2022-12-25T05:25:03.161Z,99994.19
2022-12-25T05:27:30.758Z,99981.31
2022-12-25T05:29:58.279Z,99979.72
2022-12-25T05:32:25.851Z,99979.63
2022-12-25T05:34:54.720Z,99982.22
2022-12-25T05:37:22.302Z,99977.09
2022-12-25T05:39:49.831Z,99978.81
2022-12-25T05:42:17.447Z,99966.72
2022-12-25T05:44:44.959Z,99966.59
2022-12-25T05:47:12.529Z,99962.06
2022-12-25T05:49:40.073Z,99963.78
2022-12-25T05:52:09.025Z,99968.84
2022-12-25T05:54:36.617Z,99966.16
2022-12-25T05:57:04.212Z,99965.19
2022-12-25T05:59:32.668Z,99972.09
2022-12-25T06:02:01.142Z,99973.75
2022-12-25T06:04:28.865Z,99967.75
2022-12-25T06:06:56.424Z,99974.53
2022-12-25T06:09:25.301Z,99962.63
2022-12-25T06:11:52.854Z,99964.28
2022-12-25T06:14:20.457Z,99958.47
2022-12-25T06:16:51.840Z,99949.06
2022-12-25T06:19:19.559Z,99947.66
2022-12-25T06:21:47.231Z,99946.88
2022-12-25T06:24:20.971Z,99960.59
2022-12-25T06:26:50.473Z,99948.66
2022-12-25T06:29:18.049Z,99942.94
2022-12-25T06:31:45.605Z,99945.59
2022-12-25T06:34:16.291Z,99935.22
2022-12-25T06:36:44.156Z,99939.34
2022-12-25T06:39:11.752Z,99940.22
2022-12-25T06:41:39.285Z,99951.50
2022-12-25T06:44:08.216Z,99955.59
2022-12-25T06:46:35.826Z,99955.78
2022-12-25T06:49:03.367Z,99957.47
2022-12-25T06:51:33.072Z,99948.91
2022-12-25T06:54:03.680Z,99951.41
2022-12-25T06:56:32.101Z,99947.84
2022-12-25T06:59:02.048Z,99957.91
2022-12-25T07:01:33.142Z,99969.03
2022-12-25T07:04:03.509Z,99964.03
2022-12-25T07:06:31.649Z,99953.88
2022-12-25T07:08:59.250Z,99953.88
2022-12-25T07:11:27.181Z,99950.56
2022-12-25T07:13:54.721Z,99956.59
2022-12-25T07:16:22.331Z,99947.31
2022-12-25T07:18:51.271Z,99954.19
2022-12-25T07:21:21.826Z,99929.38
2022-12-25T07:23:51.081Z,99925.88
2022-12-25T07:26:18.963Z,99919.63
2022-12-25T07:28:46.567Z,99921.38
2022-12-25T07:31:17.235Z,99917.97
2022-12-25T07:33:44.865Z,99914.59
2022-12-25T07:36:14.691Z,99904.34
2022-12-25T07:38:42.662Z,99907.84
2022-12-25T07:41:10.901Z,99904.25
2022-12-25T07:43:38.648Z,99918.84
2022-12-25T07:46:06.773Z,99918.09
2022-12-25T07:48:34.567Z,99928.50
2022-12-25T07:51:03.651Z,99937.16
2022-12-25T07:53:33.233Z,99942.34
2022-12-25T07:56:02.743Z,99951.13
2022-12-25T07:58:30.861Z,99952.78
2022-12-25T08:01:04.158Z,99950.91
2022-12-25T08:03:31.913Z,99958.66
2022-12-25T08:06:02.596Z,99955.25
2022-12-25T08:08:31.839Z,99957.00
2022-12-25T08:10:59.545Z,99954.31
2022-12-25T08:13:27.146Z,99957.59
2022-12-25T08:15:58.529Z,99957.47
2022-12-25T08:18:29.908Z,99965.63
2022-12-25T08:20:58.495Z,99958.53
2022-12-25T08:23:26.025Z,99964.34
2022-12-25T08:26:00.281Z,99956.25
2022-12-25T08:28:31.942Z,99951.06
2022-12-25T08:30:59.756Z,99945.38
2022-12-25T08:33:27.408Z,99950.41
2022-12-25T08:35:56.270Z,99949.94
2022-12-25T08:38:23.833Z,99939.94
2022-12-25T08:40:51.388Z,99934.00
2022-12-25T08:43:20.271Z,99927.16
2022-12-25T08:45:47.860Z,99893.56
2022-12-25T08:48:15.437Z,99878.06
2022-12-25T08:50:46.877Z,99868.97
2022-12-25T08:53:14.868Z,99879.50
2022-12-25T08:55:42.546Z,99884.13
2022-12-25T08:58:10.560Z,99890.00
2022-12-25T09:00:39.520Z,99905.28
2022-12-25T09:03:07.800Z,99902.63
2022-12-25T09:05:35.851Z,99906.66
2022-12-25T09:08:03.488Z,99893.16
2022-12-25T09:10:31.123Z,99903.69
2022-12-25T09:12:58.641Z,99908.25
2022-12-25T09:15:26.195Z,99905.16
2022-12-25T09:17:55.046Z,99907.38
2022-12-25T09:20:22.778Z,99912.13
2022-12-25T09:22:50.306Z,99923.81
2022-12-25T09:25:17.885Z,99928.63
2022-12-25T09:27:45.413Z,99930.13
2022-12-25T09:30:13.429Z,99923.59
2022-12-25T09:32:41.119Z,99920.59
2022-12-25T09:35:10.721Z,99922.59
2022-12-25T09:37:38.263Z,99918.38
2022-12-25T09:40:07.522Z,99927.03
2022-12-25T09:42:35.270Z,99912.50
2022-12-25T09:45:06.629Z,99916.03
2022-12-25T09:47:39.245Z,99911.88
2022-12-25T09:50:13.357Z,99900.94
2022-12-25T09:52:47.303Z,99894.31
2022-12-25T09:55:20.542Z,99904.88
2022-12-25T09:57:51.692Z,99900.81
2022-12-25T10:00:21.866Z,99885.53
2022-12-25T10:03:09.454Z,99895.22
2022-12-25T10:06:04.153Z,99884.94
2022-12-25T10:08:47.741Z,99885.06
2022-12-25T10:11:25.960Z,99877.44
2022-12-25T10:14:08.010Z,99879.28
2022-12-25T10:16:45.996Z,99875.03
2022-12-25T10:19:30.451Z,99872.47
2022-12-25T10:22:03.796Z,99867.34
2022-12-25T10:24:35.798Z,99866.50
2022-12-25T10:27:12.240Z,99871.72
2022-12-25T10:29:39.972Z,99866.56
2022-12-25T10:32:07.565Z,99863.19
2022-12-25T10:34:36.126Z,99858.09
2022-12-25T10:37:05.021Z,99850.38
2022-12-25T10:39:32.574Z,99851.22
2022-12-25T10:42:23.927Z,99852.94
2022-12-25T10:44:59.726Z,99857.25
2022-12-25T10:47:31.944Z,99842.50
2022-12-25T10:50:00.214Z,99846.78
2022-12-25T10:52:30.418Z,99840.69
2022-12-25T10:54:58.185Z,99840.66
2022-12-25T10:57:27.918Z,99841.47
2022-12-25T10:59:56.892Z,99836.19
2022-12-25T11:02:30.392Z,99836.06
2022-12-25T11:09:05.107Z,99819.50
2022-12-25T11:11:32.928Z,99822.81
2022-12-25T11:14:02.875Z,99828.78
2022-12-25T11:16:32.557Z,99821.94
2022-12-25T11:19:05.172Z,99817.59
2022-12-25T11:21:34.387Z,99808.91
2022-12-25T11:24:04.073Z,99803.72
2022-12-25T11:26:37.381Z,99805.47
2022-12-25T11:29:24.244Z,99786.66
2022-12-25T11:31:53.670Z,99777.16
2022-12-25T11:34:31.704Z,99784.06
2022-12-25T11:37:00.759Z,99776.28
2022-12-25T11:39:30.438Z,99779.00
2022-12-25T11:42:05.615Z,99774.63
2022-12-25T11:44:41.907Z,99770.22
2022-12-25T11:47:18.518Z,99772.00
2022-12-25T11:49:54.861Z,99753.75
2022-12-25T11:52:28.909Z,99759.09
2022-12-25T11:55:03.054Z,99754.66
2022-12-25T11:57:34.171Z,99746.00
2022-12-25T12:00:09.023Z,99748.78
2022-12-25T12:02:44.361Z,99745.34
2022-12-25T12:05:21.167Z,99743.53
2022-12-25T12:07:55.604Z,99748.50
2022-12-25T12:10:30.350Z,99740.38
2022-12-25T12:13:11.962Z,99743.66
2022-12-25T12:15:44.409Z,99737.22
2022-12-25T12:18:21.634Z,99728.84
2022-12-25T12:21:02.849Z,99729.34
2022-12-25T12:23:33.920Z,99728.19
2022-12-25T12:26:02.795Z,99720.56
2022-12-25T12:28:40.428Z,99728.94
2022-12-25T12:31:10.050Z,99737.44
2022-12-25T12:33:41.636Z,99735.66
2022-12-25T12:36:12.672Z,99737.38
2022-12-25T12:38:43.333Z,99728.94
2022-12-25T12:41:13.811Z,99733.78
2022-12-25T12:43:46.273Z,99739.47
2022-12-25T12:46:27.698Z,99738.22
2022-12-25T12:49:10.951Z,99737.66
2022-12-25T12:51:40.536Z,99724.13
2022-12-25T12:54:20.331Z,99718.41
2022-12-25T12:57:01.711Z,99711.06
2022-12-25T12:59:37.938Z,99709.84
2022-12-25T13:02:22.173Z,99702.56
2022-12-25T13:04:59.910Z,99712.03
2022-12-25T13:07:51.990Z,99712.09
2022-12-25T13:10:26.044Z,99704.38
2022-12-25T13:12:57.206Z,99716.50
2022-12-25T13:15:31.305Z,99712.72
2022-12-25T13:18:03.713Z,99712.41
2022-12-25T13:20:41.178Z,99716.19
2022-12-25T13:23:16.455Z,99730.63
2022-12-25T13:25:44.071Z,99729.44
2022-12-25T13:28:15.582Z,99739.03
2022-12-25T13:30:44.543Z,99728.63
2022-12-25T13:33:19.051Z,99723.66
2022-12-25T13:35:47.736Z,99725.19
2022-12-25T13:38:18.236Z,99721.41
2022-12-25T13:41:06.561Z,99716.16
2022-12-25T13:43:34.160Z,99712.94
2022-12-25T13:46:03.096Z,99707.91
2022-12-25T13:48:31.382Z,99703.00
2022-12-25T13:51:02.847Z,99709.44
2022-12-25T13:53:30.456Z,99712.19
2022-12-25T13:55:59.812Z,99702.50
2022-12-25T13:58:30.585Z,99708.31
2022-12-25T14:00:59.666Z,99717.41
2022-12-25T14:03:34.125Z,99707.31
2022-12-25T14:06:03.872Z,99706.03
2022-12-25T14:08:34.563Z,99696.03
2022-12-25T14:11:05.209Z,99688.72
2022-12-25T14:13:36.692Z,99700.53
2022-12-25T14:16:05.050Z,99698.56
2022-12-25T14:18:35.351Z,99698.56
2022-12-25T14:21:06.074Z,99696.25
2022-12-25T14:23:42.198Z,99697.47
2022-12-25T14:26:16.929Z,99694.91
2022-12-25T14:28:48.704Z,99694.47
2022-12-25T14:31:16.866Z,99697.31
2022-12-25T14:33:47.093Z,99707.91
2022-12-25T14:36:15.289Z,99698.56
2022-12-25T14:38:43.997Z,99710.88
2022-12-25T14:41:33.242Z,99692.72
2022-12-25T14:44:03.846Z,99688.50
2022-12-25T14:46:33.211Z,99688.56
2022-12-25T14:49:04.073Z,99683.38
2022-12-25T14:51:32.815Z,99685.06
2022-12-25T14:54:05.455Z,99683.31
2022-12-25T14:56:37.974Z,99675.53
2022-12-25T14:59:07.157Z,99683.28
2022-12-25T15:01:37.520Z,99683.22
2022-12-25T15:04:14.076Z,99689.16
2022-12-25T15:06:52.947Z,99691.63
2022-12-25T15:09:20.958Z,99707.88
2022-12-25T15:11:49.198Z,99719.00
2022-12-25T15:14:16.793Z,99721.34
2022-12-25T15:16:47.945Z,99713.56
2022-12-25T15:19:25.759Z,99714.31
2022-12-25T15:21:54.168Z,99711.53
2022-12-25T15:24:21.753Z,99693.31
2022-12-25T15:26:49.253Z,99706.13
2022-12-25T15:29:27.579Z,99698.22
2022-12-25T15:32:04.997Z,99710.16
2022-12-25T15:34:33.898Z,99720.38
2022-12-25T15:37:01.461Z,99720.81
2022-12-25T15:39:29.006Z,99716.44
2022-12-25T15:42:11.522Z,99706.09
2022-12-25T15:44:39.123Z,99737.88
2022-12-25T15:47:06.961Z,99727.41
2022-12-25T15:49:35.897Z,99735.13
2022-12-25T15:52:04.539Z,99739.34
2022-12-25T15:54:32.239Z,99739.13
2022-12-25T15:57:03.516Z,99743.28
2022-12-25T15:59:31.123Z,99742.34
2022-12-25T16:02:00.478Z,99747.50
2022-12-25T16:04:31.124Z,99763.72
2022-12-25T16:07:00.817Z,99761.06
2022-12-25T16:09:28.368Z,99757.53
2022-12-25T16:11:55.897Z,99745.47
2022-12-25T16:14:23.522Z,99743.75
2022-12-25T16:16:51.075Z,99745.28
2022-12-25T16:19:18.628Z,99741.75
2022-12-25T16:21:47.896Z,99744.25
2022-12-25T16:24:17.027Z,99753.59
2022-12-25T16:26:44.753Z,99759.47
2022-12-25T16:29:12.533Z,99758.56
2022-12-25T16:31:41.186Z,99756.78
2022-12-25T16:34:10.362Z,99756.72
2022-12-25T16:36:38.127Z,99746.34
2022-12-25T16:39:06.186Z,99731.63
2022-12-25T16:41:35.107Z,99724.69
2022-12-25T16:44:09.013Z,99721.19
2022-12-25T16:46:37.874Z,99714.84
2022-12-25T16:49:05.637Z,99718.16
2022-12-25T16:51:33.370Z,99726.75
2022-12-25T16:54:00.922Z,99731.63
2022-12-25T16:56:30.711Z,99717.69
2022-12-25T16:59:00.887Z,99727.84
2022-12-25T17:01:28.634Z,99727.75
2022-12-25T17:04:01.335Z,99733.69
2022-12-25T17:06:29.121Z,99737.88
2022-12-25T17:08:59.347Z,99734.38
2022-12-25T17:11:29.707Z,99747.22
2022-12-25T17:13:59.781Z,99745.50
2022-12-25T17:16:29.472Z,99747.97
2022-12-25T17:19:01.143Z,99761.59
2022-12-25T17:21:29.847Z,99761.41
2022-12-25T17:24:02.255Z,99768.16
2022-12-25T17:26:31.624Z,99787.00
2022-12-25T17:29:00.883Z,99786.06
2022-12-25T17:31:29.227Z,99778.31
2022-12-25T17:33:57.588Z,99777.38
2022-12-25T17:36:25.165Z,99784.94
2022-12-25T17:38:52.677Z,99783.06
2022-12-25T17:41:21.356Z,99763.22
2022-12-25T17:43:49.499Z,99774.25
2022-12-25T17:46:20.385Z,99776.69
2022-12-25T17:48:49.805Z,99766.16
2022-12-25T17:51:19.527Z,99778.91
2022-12-25T17:53:49.173Z,99776.16
2022-12-25T17:56:17.898Z,99778.59
2022-12-25T17:58:45.983Z,99787.81
2022-12-25T18:01:15.424Z,99783.31
2022-12-25T18:03:45.446Z,99782.19
2022-12-25T18:06:15.018Z,99776.84
2022-12-25T18:08:43.989Z,99777.63
2022-12-25T18:11:15.140Z,99770.66
2022-12-25T18:13:44.664Z,99753.41
2022-12-25T18:16:13.446Z,99761.00
2022-12-25T18:18:45.180Z,99788.41
2022-12-25T18:21:18.634Z,99776.41
2022-12-25T18:23:46.674Z,99784.06
2022-12-25T18:26:14.874Z,99782.22
2022-12-25T18:28:43.750Z,99778.94
2022-12-25T18:31:14.704Z,99784.41
2022-12-25T18:33:42.599Z,99794.81
2022-12-25T18:36:12.133Z,99786.91
2022-12-25T18:38:41.647Z,99781.59
2022-12-25T18:41:10.773Z,99791.72
2022-12-25T18:43:54.412Z,99791.59
2022-12-25T18:46:24.268Z,99789.75
2022-12-25T18:48:52.570Z,99793.91
2022-12-25T18:51:20.382Z,99784.28
2022-12-25T18:53:49.306Z,99794.34
2022-12-25T18:56:18.703Z,99783.88
2022-12-25T18:58:46.817Z,99788.03
2022-12-25T19:01:16.127Z,99790.53
2022-12-25T19:03:44.702Z,99786.81
2022-12-25T19:06:18.320Z,99787.50
2022-12-25T19:08:46.095Z,99783.94
2022-12-25T19:11:15.243Z,99777.06
2022-12-25T19:13:42.956Z,99774.41
2022-12-25T19:16:11.198Z,99775.19
2022-12-25T19:18:39.285Z,99772.53
2022-12-25T19:21:08.760Z,99769.94
2022-12-25T19:23:37.629Z,99770.75
2022-12-25T19:26:06.038Z,99762.91
2022-12-25T19:28:35.110Z,99763.56
2022-12-25T19:31:07.284Z,99761.00
2022-12-25T19:33:35.876Z,99767.75
2022-12-25T19:36:05.173Z,99760.00
2022-12-25T19:38:32.749Z,99770.16
2022-12-25T19:41:03.055Z,99760.69
2022-12-25T19:43:32.569Z,99753.88
2022-12-25T19:46:02.417Z,99760.69
2022-12-25T19:48:30.468Z,99755.53
2022-12-25T19:50:58.374Z,99759.72
2022-12-25T19:53:26.597Z,99768.34
2022-12-25T19:55:55.383Z,99770.00
2022-12-25T19:58:24.415Z,99757.97
2022-12-25T20:00:59.174Z,99756.28
2022-12-25T20:03:28.320Z,99758.75
2022-12-25T20:05:56.492Z,99748.50
2022-12-25T20:08:24.605Z,99751.00
2022-12-25T20:10:52.382Z,99749.13
2022-12-25T20:13:20.230Z,99756.81
2022-12-25T20:15:48.361Z,99763.59
2022-12-25T20:18:16.682Z,99757.59
2022-12-25T20:20:45.983Z,99750.59
2022-12-25T20:23:13.523Z,99752.94
2022-12-25T20:25:42.264Z,99752.06
2022-12-25T20:28:10.309Z,99755.50
2022-12-25T20:30:39.915Z,99759.72
2022-12-25T20:33:07.449Z,99768.25
2022-12-25T20:35:35.007Z,99781.75
2022-12-25T20:38:04.414Z,99784.25
2022-12-25T20:40:46.805Z,99788.53
2022-12-25T20:43:19.521Z,99799.56
2022-12-25T20:45:50.918Z,99798.78
2022-12-25T20:48:19.231Z,99802.25
2022-12-25T20:50:46.854Z,99799.69
2022-12-25T20:53:15.755Z,99792.81
2022-12-25T20:55:45.831Z,99798.84
2022-12-25T20:58:13.837Z,99796.25
2022-12-25T21:00:41.905Z,99795.41
2022-12-25T21:03:10.260Z,99784.44
2022-12-25T21:05:49.544Z,99766.50
2022-12-25T21:08:19.410Z,99780.84
2022-12-25T21:10:50.431Z,99769.69
2022-12-25T21:13:18.176Z,99775.72
2022-12-25T21:15:47.037Z,99775.72
2022-12-25T21:18:14.813Z,99781.53
2022-12-25T21:20:44.426Z,99789.94
2022-12-25T21:23:12.007Z,99778.81
2022-12-25T21:25:43.214Z,99782.97
2022-12-25T21:28:12.999Z,99777.75
2022-12-25T21:30:40.638Z,99783.56
2022-12-25T21:33:25.927Z,99776.09
2022-12-25T21:35:53.457Z,99785.38
2022-12-25T21:38:21.099Z,99789.81
2022-12-25T21:40:49.974Z,99783.09
2022-12-25T21:43:17.563Z,99790.06
2022-12-25T21:45:45.152Z,99791.88
2022-12-25T21:48:13.261Z,99792.31
2022-12-25T21:50:58.136Z,99795.53
2022-12-25T21:53:25.761Z,99790.13
2022-12-25T21:55:58.980Z,99795.13
2022-12-25T21:58:26.578Z,99786.38
2022-12-25T22:00:54.288Z,99792.31
2022-12-25T22:03:22.091Z,99792.38
2022-12-25T22:06:07.948Z,99796.59
2022-12-25T22:08:35.592Z,99800.88
2022-12-25T22:11:05.964Z,99804.22
2022-12-25T22:13:51.067Z,99807.44
2022-12-25T22:16:36.489Z,99809.81
2022-12-25T22:19:21.857Z,99814.03
2022-12-25T22:21:49.441Z,99811.34
2022-12-25T22:24:18.756Z,99807.88
2022-12-25T22:26:47.739Z,99811.34
2022-12-25T22:29:15.347Z,99824.00
2022-12-25T22:31:46.885Z,99823.13
2022-12-25T22:34:16.239Z,99819.66
2022-12-25T22:36:43.818Z,99826.44
2022-12-25T22:39:12.265Z,99827.22
2022-12-25T22:41:39.854Z,99822.94
2022-12-25T22:44:17.823Z,99827.06
2022-12-25T22:46:45.896Z,99825.34
2022-12-25T22:49:15.369Z,99833.66
2022-12-25T22:51:43.094Z,99833.50
2022-12-25T22:54:12.969Z,99833.38
2022-12-25T22:56:40.603Z,99835.94
2022-12-25T22:59:10.014Z,99839.22
2022-12-25T23:01:37.787Z,99853.72
2022-12-25T23:04:07.077Z,99851.91
2022-12-25T23:06:35.067Z,99858.72
2022-12-25T23:09:03.308Z,99862.19
2022-12-25T23:11:31.542Z,99868.06
2022-12-25T23:14:16.558Z,99873.97
2022-12-25T23:16:45.529Z,99876.50
2022-12-25T23:19:31.856Z,99881.75
2022-12-25T23:22:17.298Z,99897.53
2022-12-25T23:25:02.590Z,99880.09
2022-12-25T23:27:30.225Z,99895.22
2022-12-25T23:29:56.859Z,99895.63
2022-12-25T23:32:27.927Z,99900.22
2022-12-25T23:34:56.531Z,99892.66
2022-12-25T23:37:24.077Z,99884.91
2022-12-25T23:39:51.699Z,99889.19
2022-12-25T23:42:19.467Z,99889.19
2022-12-25T23:44:47.062Z,99890.81
2022-12-25T23:47:14.744Z,99887.31
2022-12-25T23:49:44.071Z,99893.22
2022-12-25T23:52:12.540Z,99900.75
2022-12-25T23:54:40.391Z,99903.31
2022-12-25T23:57:08.108Z,99915.22
2022-12-25T23:59:35.661Z,99907.41
